sensor_id;sensor_type;location;lat;lon;timestamp;temperature;humidity
44047;DHT22;29713;-33.888;151.150;2023-02-18T00:01:16;29.50;99.90
44047;DHT22;29713;-33.888;151.150;2023-02-18T00:03:44;29.70;99.90
44047;DHT22;29713;-33.888;151.150;2023-02-18T00:06:14;29.90;99.90
44047;DHT22;29713;-33.888;151.150;2023-02-18T00:08:43;30.10;99.90
44047;DHT22;29713;-33.888;151.150;2023-02-18T00:11:11;30.20;99.90
44047;DHT22;29713;-33.888;151.150;2023-02-18T00:13:39;30.40;99.90
44047;DHT22;29713;-33.888;151.150;2023-02-18T00:16:10;30.50;99.90
44047;DHT22;29713;-33.888;151.150;2023-02-18T00:18:38;30.60;99.90
44047;DHT22;29713;-33.888;151.150;2023-02-18T00:21:07;30.70;99.90
44047;DHT22;29713;-33.888;151.150;2023-02-18T00:23:35;30.80;99.90
44047;DHT22;29713;-33.888;151.150;2023-02-18T00:26:12;30.90;99.90
44047;DHT22;29713;-33.888;151.150;2023-02-18T00:28:40;31.10;99.90
44047;DHT22;29713;-33.888;151.150;2023-02-18T00:31:10;31.10;99.90
44047;DHT22;29713;-33.888;151.150;2023-02-18T00:33:39;31.10;99.90
44047;DHT22;29713;-33.888;151.150;2023-02-18T00:36:10;31.20;99.90
44047;DHT22;29713;-33.888;151.150;2023-02-18T00:38:38;31.30;99.90
44047;DHT22;29713;-33.888;151.150;2023-02-18T00:41:06;31.40;99.90
44047;DHT22;29713;-33.888;151.150;2023-02-18T00:43:33;31.40;99.90
44047;DHT22;29713;-33.888;151.150;2023-02-18T00:46:00;31.40;99.90
44047;DHT22;29713;-33.888;151.150;2023-02-18T00:48:28;31.50;99.90
44047;DHT22;29713;-33.888;151.150;2023-02-18T00:50:55;31.60;99.90
44047;DHT22;29713;-33.888;151.150;2023-02-18T00:53:22;31.70;99.90
44047;DHT22;29713;-33.888;151.150;2023-02-18T00:55:50;31.60;99.90
44047;DHT22;29713;-33.888;151.150;2023-02-18T00:58:17;31.70;99.90
44047;DHT22;29713;-33.888;151.150;2023-02-18T01:00:45;31.90;99.90
44047;DHT22;29713;-33.888;151.150;2023-02-18T01:03:13;32.10;99.90
44047;DHT22;29713;-33.888;151.150;2023-02-18T01:05:40;32.00;99.90
44047;DHT22;29713;-33.888;151.150;2023-02-18T01:08:09;32.10;99.90
44047;DHT22;29713;-33.888;151.150;2023-02-18T01:10:41;32.20;99.90
44047;DHT22;29713;-33.888;151.150;2023-02-18T01:13:10;32.30;99.90
44047;DHT22;29713;-33.888;151.150;2023-02-18T01:15:39;32.40;99.90
44047;DHT22;29713;-33.888;151.150;2023-02-18T01:18:08;32.40;99.90
44047;DHT22;29713;-33.888;151.150;2023-02-18T01:20:37;32.60;99.90
44047;DHT22;29713;-33.888;151.150;2023-02-18T01:23:05;32.80;99.90
44047;DHT22;29713;-33.888;151.150;2023-02-18T01:25:35;32.80;99.90
44047;DHT22;29713;-33.888;151.150;2023-02-18T01:28:04;32.90;99.90
44047;DHT22;29713;-33.888;151.150;2023-02-18T01:30:31;33.00;99.90
44047;DHT22;29713;-33.888;151.150;2023-02-18T01:32:59;33.00;99.90
44047;DHT22;29713;-33.888;151.150;2023-02-18T01:35:28;33.20;99.90
44047;DHT22;29713;-33.888;151.150;2023-02-18T01:37:55;33.10;99.90
44047;DHT22;29713;-33.888;151.150;2023-02-18T01:40:26;33.00;99.90
44047;DHT22;29713;-33.888;151.150;2023-02-18T01:42:55;33.10;99.90
44047;DHT22;29713;-33.888;151.150;2023-02-18T01:48:16;33.50;99.90
44047;DHT22;29713;-33.888;151.150;2023-02-18T01:50:51;33.50;99.90
44047;DHT22;29713;-33.888;151.150;2023-02-18T01:53:27;33.80;99.90
44047;DHT22;29713;-33.888;151.150;2023-02-18T01:55:57;33.90;99.90
44047;DHT22;29713;-33.888;151.150;2023-02-18T01:58:26;34.10;99.90
44047;DHT22;29713;-33.888;151.150;2023-02-18T02:00:53;34.20;99.90
44047;DHT22;29713;-33.888;151.150;2023-02-18T02:03:22;34.10;99.90
44047;DHT22;29713;-33.888;151.150;2023-02-18T02:05:49;33.90;99.90
44047;DHT22;29713;-33.888;151.150;2023-02-18T02:08:17;33.90;99.90
44047;DHT22;29713;-33.888;151.150;2023-02-18T02:11:05;34.10;99.90
44047;DHT22;29713;-33.888;151.150;2023-02-18T02:17:04;34.60;99.90
44047;DHT22;29713;-33.888;151.150;2023-02-18T02:23:01;34.70;99.90
44047;DHT22;29713;-33.888;151.150;2023-02-18T02:40:06;35.40;99.90
44047;DHT22;29713;-33.888;151.150;2023-02-18T02:43:07;35.70;99.90
44047;DHT22;29713;-33.888;151.150;2023-02-18T02:46:01;35.80;99.90
44047;DHT22;29713;-33.888;151.150;2023-02-18T02:51:17;35.80;99.90
44047;DHT22;29713;-33.888;151.150;2023-02-18T02:53:47;35.90;99.90
44047;DHT22;29713;-33.888;151.150;2023-02-18T02:56:23;35.70;99.90
44047;DHT22;29713;-33.888;151.150;2023-02-18T02:59:05;35.90;99.90
44047;DHT22;29713;-33.888;151.150;2023-02-18T03:12:39;37.20;99.90
44047;DHT22;29713;-33.888;151.150;2023-02-18T03:18:08;37.20;99.90
44047;DHT22;29713;-33.888;151.150;2023-02-18T03:20:47;37.40;99.90
44047;DHT22;29713;-33.888;151.150;2023-02-18T03:23:20;37.40;99.90
44047;DHT22;29713;-33.888;151.150;2023-02-18T03:25:51;37.50;99.90
44047;DHT22;29713;-33.888;151.150;2023-02-18T03:28:20;37.60;99.90
44047;DHT22;29713;-33.888;151.150;2023-02-18T03:30:55;37.90;99.90
44047;DHT22;29713;-33.888;151.150;2023-02-18T03:33:36;37.40;99.90
44047;DHT22;29713;-33.888;151.150;2023-02-18T03:36:06;37.30;99.90
44047;DHT22;29713;-33.888;151.150;2023-02-18T03:39:31;37.00;99.90
44047;DHT22;29713;-33.888;151.150;2023-02-18T03:41:50;37.10;99.90
44047;DHT22;29713;-33.888;151.150;2023-02-18T03:44:17;37.40;99.90
44047;DHT22;29713;-33.888;151.150;2023-02-18T03:46:45;37.30;99.90
44047;DHT22;29713;-33.888;151.150;2023-02-18T03:49:13;37.30;99.90
44047;DHT22;29713;-33.888;151.150;2023-02-18T03:51:41;37.50;99.90
44047;DHT22;29713;-33.888;151.150;2023-02-18T03:54:10;37.80;99.90
44047;DHT22;29713;-33.888;151.150;2023-02-18T03:56:39;37.70;99.90
44047;DHT22;29713;-33.888;151.150;2023-02-18T03:59:08;37.00;99.90
44047;DHT22;29713;-33.888;151.150;2023-02-18T04:01:35;37.20;99.90
44047;DHT22;29713;-33.888;151.150;2023-02-18T04:04:14;37.30;99.90
44047;DHT22;29713;-33.888;151.150;2023-02-18T04:06:42;37.70;99.90
44047;DHT22;29713;-33.888;151.150;2023-02-18T04:09:09;37.70;99.90
44047;DHT22;29713;-33.888;151.150;2023-02-18T04:11:40;38.10;99.90
44047;DHT22;29713;-33.888;151.150;2023-02-18T04:14:08;38.30;99.90
44047;DHT22;29713;-33.888;151.150;2023-02-18T04:16:36;38.30;99.90
44047;DHT22;29713;-33.888;151.150;2023-02-18T04:19:03;38.20;99.90
44047;DHT22;29713;-33.888;151.150;2023-02-18T04:21:31;38.10;99.90
44047;DHT22;29713;-33.888;151.150;2023-02-18T04:23:59;38.00;99.90
44047;DHT22;29713;-33.888;151.150;2023-02-18T04:26:27;37.80;99.90
44047;DHT22;29713;-33.888;151.150;2023-02-18T04:28:54;37.60;99.90
44047;DHT22;29713;-33.888;151.150;2023-02-18T04:31:21;37.30;99.90
44047;DHT22;29713;-33.888;151.150;2023-02-18T04:33:49;36.70;99.90
44047;DHT22;29713;-33.888;151.150;2023-02-18T04:36:16;36.00;99.90
44047;DHT22;29713;-33.888;151.150;2023-02-18T04:38:43;35.70;99.90
44047;DHT22;29713;-33.888;151.150;2023-02-18T04:41:11;35.80;99.90
44047;DHT22;29713;-33.888;151.150;2023-02-18T04:43:38;35.70;99.90
44047;DHT22;29713;-33.888;151.150;2023-02-18T04:46:06;35.20;99.90
44047;DHT22;29713;-33.888;151.150;2023-02-18T04:48:36;34.60;99.90
44047;DHT22;29713;-33.888;151.150;2023-02-18T04:51:04;34.20;99.90
44047;DHT22;29713;-33.888;151.150;2023-02-18T04:53:33;33.60;99.90
44047;DHT22;29713;-33.888;151.150;2023-02-18T04:56:00;33.20;99.90
44047;DHT22;29713;-33.888;151.150;2023-02-18T04:58:28;32.70;99.90
44047;DHT22;29713;-33.888;151.150;2023-02-18T05:00:59;32.40;99.90
44047;DHT22;29713;-33.888;151.150;2023-02-18T05:03:27;32.00;99.90
44047;DHT22;29713;-33.888;151.150;2023-02-18T05:05:55;31.80;99.90
44047;DHT22;29713;-33.888;151.150;2023-02-18T05:08:25;31.60;99.90
44047;DHT22;29713;-33.888;151.150;2023-02-18T05:10:52;31.40;99.90
44047;DHT22;29713;-33.888;151.150;2023-02-18T05:13:20;31.10;99.90
44047;DHT22;29713;-33.888;151.150;2023-02-18T05:15:48;31.00;99.90
44047;DHT22;29713;-33.888;151.150;2023-02-18T05:18:16;30.80;99.90
44047;DHT22;29713;-33.888;151.150;2023-02-18T05:20:43;30.60;99.90
44047;DHT22;29713;-33.888;151.150;2023-02-18T05:23:11;30.50;99.90
44047;DHT22;29713;-33.888;151.150;2023-02-18T05:25:38;30.30;99.90
44047;DHT22;29713;-33.888;151.150;2023-02-18T05:28:05;30.20;99.90
44047;DHT22;29713;-33.888;151.150;2023-02-18T05:30:33;30.10;99.90
44047;DHT22;29713;-33.888;151.150;2023-02-18T05:33:00;30.00;99.90
44047;DHT22;29713;-33.888;151.150;2023-02-18T05:35:28;29.90;99.90
44047;DHT22;29713;-33.888;151.150;2023-02-18T05:37:55;29.70;99.90
44047;DHT22;29713;-33.888;151.150;2023-02-18T05:40:22;29.70;99.90
44047;DHT22;29713;-33.888;151.150;2023-02-18T05:42:50;29.60;99.90
44047;DHT22;29713;-33.888;151.150;2023-02-18T05:45:17;29.40;99.90
44047;DHT22;29713;-33.888;151.150;2023-02-18T05:47:44;29.40;99.90
44047;DHT22;29713;-33.888;151.150;2023-02-18T05:50:12;29.20;99.90
44047;DHT22;29713;-33.888;151.150;2023-02-18T05:52:39;29.10;99.90
44047;DHT22;29713;-33.888;151.150;2023-02-18T05:55:07;29.00;99.90
44047;DHT22;29713;-33.888;151.150;2023-02-18T05:57:34;28.90;99.90
44047;DHT22;29713;-33.888;151.150;2023-02-18T06:00:03;28.90;99.90
44047;DHT22;29713;-33.888;151.150;2023-02-18T06:02:30;28.80;99.90
44047;DHT22;29713;-33.888;151.150;2023-02-18T06:04:57;28.70;99.90
44047;DHT22;29713;-33.888;151.150;2023-02-18T06:07:25;28.70;99.90
44047;DHT22;29713;-33.888;151.150;2023-02-18T06:09:52;28.70;99.90
44047;DHT22;29713;-33.888;151.150;2023-02-18T06:12:19;28.70;99.90
44047;DHT22;29713;-33.888;151.150;2023-02-18T06:14:47;28.70;99.90
44047;DHT22;29713;-33.888;151.150;2023-02-18T06:17:14;28.60;99.90
44047;DHT22;29713;-33.888;151.150;2023-02-18T06:19:44;28.60;99.90
44047;DHT22;29713;-33.888;151.150;2023-02-18T06:22:13;28.50;99.90
44047;DHT22;29713;-33.888;151.150;2023-02-18T06:24:40;28.50;99.90
44047;DHT22;29713;-33.888;151.150;2023-02-18T06:27:10;28.50;99.90
44047;DHT22;29713;-33.888;151.150;2023-02-18T06:29:38;28.50;99.90
44047;DHT22;29713;-33.888;151.150;2023-02-18T06:32:05;28.70;99.90
44047;DHT22;29713;-33.888;151.150;2023-02-18T06:34:32;29.30;99.90
44047;DHT22;29713;-33.888;151.150;2023-02-18T06:37:00;29.90;99.90
44047;DHT22;29713;-33.888;151.150;2023-02-18T06:39:27;29.90;99.90
44047;DHT22;29713;-33.888;151.150;2023-02-18T06:41:55;30.00;99.90
44047;DHT22;29713;-33.888;151.150;2023-02-18T06:44:22;30.50;99.90
44047;DHT22;29713;-33.888;151.150;2023-02-18T06:46:49;31.10;99.90
44047;DHT22;29713;-33.888;151.150;2023-02-18T06:49:17;31.40;99.90
44047;DHT22;29713;-33.888;151.150;2023-02-18T06:51:44;31.70;99.90
44047;DHT22;29713;-33.888;151.150;2023-02-18T06:54:11;32.00;99.90
44047;DHT22;29713;-33.888;151.150;2023-02-18T06:56:39;32.00;99.90
44047;DHT22;29713;-33.888;151.150;2023-02-18T06:59:06;31.80;99.90
44047;DHT22;29713;-33.888;151.150;2023-02-18T07:01:33;31.50;99.90
44047;DHT22;29713;-33.888;151.150;2023-02-18T07:04:01;31.10;99.90
44047;DHT22;29713;-33.888;151.150;2023-02-18T07:06:28;30.70;99.90
44047;DHT22;29713;-33.888;151.150;2023-02-18T07:08:59;30.40;99.90
44047;DHT22;29713;-33.888;151.150;2023-02-18T07:11:33;30.20;99.90
44047;DHT22;29713;-33.888;151.150;2023-02-18T07:14:13;30.10;99.90
44047;DHT22;29713;-33.888;151.150;2023-02-18T07:16:46;29.80;99.90
44047;DHT22;29713;-33.888;151.150;2023-02-18T07:19:20;29.70;99.90
44047;DHT22;29713;-33.888;151.150;2023-02-18T07:21:47;29.70;99.90
44047;DHT22;29713;-33.888;151.150;2023-02-18T07:24:15;29.70;99.90
44047;DHT22;29713;-33.888;151.150;2023-02-18T07:26:42;29.60;99.90
44047;DHT22;29713;-33.888;151.150;2023-02-18T07:29:09;29.60;99.90
44047;DHT22;29713;-33.888;151.150;2023-02-18T07:31:37;29.50;99.90
44047;DHT22;29713;-33.888;151.150;2023-02-18T07:34:04;29.40;99.90
44047;DHT22;29713;-33.888;151.150;2023-02-18T07:36:31;29.20;99.90
44047;DHT22;29713;-33.888;151.150;2023-02-18T07:38:59;29.10;99.90
44047;DHT22;29713;-33.888;151.150;2023-02-18T07:41:26;29.00;99.90
44047;DHT22;29713;-33.888;151.150;2023-02-18T07:43:53;28.70;99.90
44047;DHT22;29713;-33.888;151.150;2023-02-18T07:46:21;28.60;99.90
44047;DHT22;29713;-33.888;151.150;2023-02-18T07:48:48;28.30;99.90
44047;DHT22;29713;-33.888;151.150;2023-02-18T07:51:16;28.00;99.90
44047;DHT22;29713;-33.888;151.150;2023-02-18T07:53:43;27.70;99.90
44047;DHT22;29713;-33.888;151.150;2023-02-18T07:56:10;27.50;99.90
44047;DHT22;29713;-33.888;151.150;2023-02-18T07:58:38;27.10;99.90
44047;DHT22;29713;-33.888;151.150;2023-02-18T08:01:11;26.70;99.90
44047;DHT22;29713;-33.888;151.150;2023-02-18T08:03:40;26.40;99.90
44047;DHT22;29713;-33.888;151.150;2023-02-18T08:06:12;26.20;99.90
44047;DHT22;29713;-33.888;151.150;2023-02-18T08:08:43;25.80;99.90
44047;DHT22;29713;-33.888;151.150;2023-02-18T08:11:11;25.40;99.90
44047;DHT22;29713;-33.888;151.150;2023-02-18T08:13:38;25.20;99.90
44047;DHT22;29713;-33.888;151.150;2023-02-18T08:16:05;24.90;99.90
44047;DHT22;29713;-33.888;151.150;2023-02-18T08:18:33;24.90;99.90
44047;DHT22;29713;-33.888;151.150;2023-02-18T08:21:01;24.90;99.90
44047;DHT22;29713;-33.888;151.150;2023-02-18T08:23:28;24.80;99.90
44047;DHT22;29713;-33.888;151.150;2023-02-18T08:25:55;24.70;99.90
44047;DHT22;29713;-33.888;151.150;2023-02-18T08:28:24;24.70;99.90
44047;DHT22;29713;-33.888;151.150;2023-02-18T08:30:53;24.70;99.90
44047;DHT22;29713;-33.888;151.150;2023-02-18T08:33:21;24.60;99.90
44047;DHT22;29713;-33.888;151.150;2023-02-18T08:35:51;24.60;99.90
44047;DHT22;29713;-33.888;151.150;2023-02-18T08:38:19;24.50;99.90
44047;DHT22;29713;-33.888;151.150;2023-02-18T08:40:47;24.50;99.90
44047;DHT22;29713;-33.888;151.150;2023-02-18T08:43:18;24.40;99.90
44047;DHT22;29713;-33.888;151.150;2023-02-18T08:45:45;24.50;99.90
44047;DHT22;29713;-33.888;151.150;2023-02-18T08:48:13;24.60;99.90
44047;DHT22;29713;-33.888;151.150;2023-02-18T08:50:41;24.60;99.90
44047;DHT22;29713;-33.888;151.150;2023-02-18T08:53:11;24.50;99.90
44047;DHT22;29713;-33.888;151.150;2023-02-18T08:55:39;24.50;99.90
44047;DHT22;29713;-33.888;151.150;2023-02-18T08:58:07;24.50;99.90
44047;DHT22;29713;-33.888;151.150;2023-02-18T09:00:35;24.60;99.90
44047;DHT22;29713;-33.888;151.150;2023-02-18T09:03:06;24.70;99.90
44047;DHT22;29713;-33.888;151.150;2023-02-18T09:05:33;24.70;99.90
44047;DHT22;29713;-33.888;151.150;2023-02-18T09:08:00;24.80;99.90
44047;DHT22;29713;-33.888;151.150;2023-02-18T09:10:28;24.70;99.90
44047;DHT22;29713;-33.888;151.150;2023-02-18T09:12:55;24.60;99.90
44047;DHT22;29713;-33.888;151.150;2023-02-18T09:15:22;24.50;99.90
44047;DHT22;29713;-33.888;151.150;2023-02-18T09:17:52;24.40;99.90
44047;DHT22;29713;-33.888;151.150;2023-02-18T09:20:20;24.40;99.90
44047;DHT22;29713;-33.888;151.150;2023-02-18T09:22:47;24.40;99.90
44047;DHT22;29713;-33.888;151.150;2023-02-18T09:25:14;24.30;99.90
44047;DHT22;29713;-33.888;151.150;2023-02-18T09:27:42;24.20;99.90
44047;DHT22;29713;-33.888;151.150;2023-02-18T09:30:09;24.20;99.90
44047;DHT22;29713;-33.888;151.150;2023-02-18T09:32:37;24.10;99.90
44047;DHT22;29713;-33.888;151.150;2023-02-18T09:35:04;23.90;99.90
44047;DHT22;29713;-33.888;151.150;2023-02-18T09:37:32;23.70;99.90
44047;DHT22;29713;-33.888;151.150;2023-02-18T09:39:59;23.60;99.90
44047;DHT22;29713;-33.888;151.150;2023-02-18T09:42:33;23.60;99.90
44047;DHT22;29713;-33.888;151.150;2023-02-18T09:45:06;23.50;99.90
44047;DHT22;29713;-33.888;151.150;2023-02-18T09:47:41;23.50;99.90
44047;DHT22;29713;-33.888;151.150;2023-02-18T09:50:19;23.50;99.90
44047;DHT22;29713;-33.888;151.150;2023-02-18T09:52:48;23.50;99.90
44047;DHT22;29713;-33.888;151.150;2023-02-18T09:55:31;23.50;99.90
44047;DHT22;29713;-33.888;151.150;2023-02-18T10:01:38;23.50;99.90
44047;DHT22;29713;-33.888;151.150;2023-02-18T10:03:46;23.40;99.90
44047;DHT22;29713;-33.888;151.150;2023-02-18T10:06:29;23.40;99.90
44047;DHT22;29713;-33.888;151.150;2023-02-18T10:09:00;23.40;99.90
44047;DHT22;29713;-33.888;151.150;2023-02-18T10:11:42;23.40;99.90
44047;DHT22;29713;-33.888;151.150;2023-02-18T10:14:13;23.50;99.90
44047;DHT22;29713;-33.888;151.150;2023-02-18T10:16:43;23.60;99.90
44047;DHT22;29713;-33.888;151.150;2023-02-18T10:21:57;23.60;99.90
44047;DHT22;29713;-33.888;151.150;2023-02-18T10:27:05;23.50;99.90
44047;DHT22;29713;-33.888;151.150;2023-02-18T10:29:34;23.50;99.90
44047;DHT22;29713;-33.888;151.150;2023-02-18T10:43:40;23.30;99.90
44047;DHT22;29713;-33.888;151.150;2023-02-18T10:46:23;23.30;99.90
44047;DHT22;29713;-33.888;151.150;2023-02-18T10:51:33;23.40;99.90
44047;DHT22;29713;-33.888;151.150;2023-02-18T10:54:01;23.40;99.90
44047;DHT22;29713;-33.888;151.150;2023-02-18T10:56:38;23.40;99.90
44047;DHT22;29713;-33.888;151.150;2023-02-18T10:59:19;23.40;99.90
44047;DHT22;29713;-33.888;151.150;2023-02-18T11:01:55;23.50;99.90
44047;DHT22;29713;-33.888;151.150;2023-02-18T11:04:38;23.50;99.90
44047;DHT22;29713;-33.888;151.150;2023-02-18T11:07:12;23.50;99.90
44047;DHT22;29713;-33.888;151.150;2023-02-18T11:14:50;23.50;99.90
44047;DHT22;29713;-33.888;151.150;2023-02-18T11:17:33;23.50;99.90
44047;DHT22;29713;-33.888;151.150;2023-02-18T11:20:23;23.30;99.90
44047;DHT22;29713;-33.888;151.150;2023-02-18T11:25:35;23.20;99.90
44047;DHT22;29713;-33.888;151.150;2023-02-18T11:30:47;23.20;99.90
44047;DHT22;29713;-33.888;151.150;2023-02-18T11:33:20;23.20;99.90
44047;DHT22;29713;-33.888;151.150;2023-02-18T11:35:53;23.30;99.90
44047;DHT22;29713;-33.888;151.150;2023-02-18T11:38:46;23.30;99.90
44047;DHT22;29713;-33.888;151.150;2023-02-18T11:41:17;23.30;99.90
44047;DHT22;29713;-33.888;151.150;2023-02-18T11:43:48;23.40;99.90
44047;DHT22;29713;-33.888;151.150;2023-02-18T11:46:25;23.50;99.90
44047;DHT22;29713;-33.888;151.150;2023-02-18T11:48:53;23.40;99.90
44047;DHT22;29713;-33.888;151.150;2023-02-18T11:51:32;23.40;99.90
44047;DHT22;29713;-33.888;151.150;2023-02-18T11:54:05;23.30;99.90
44047;DHT22;29713;-33.888;151.150;2023-02-18T11:56:34;23.30;99.90
44047;DHT22;29713;-33.888;151.150;2023-02-18T11:59:03;23.30;99.90
44047;DHT22;29713;-33.888;151.150;2023-02-18T12:01:53;23.20;99.90
44047;DHT22;29713;-33.888;151.150;2023-02-18T12:04:50;23.20;99.90
44047;DHT22;29713;-33.888;151.150;2023-02-18T12:10:48;23.10;99.90
44047;DHT22;29713;-33.888;151.150;2023-02-18T12:18:53;23.00;99.90
44047;DHT22;29713;-33.888;151.150;2023-02-18T12:21:42;23.00;99.90
44047;DHT22;29713;-33.888;151.150;2023-02-18T12:24:27;23.00;99.90
44047;DHT22;29713;-33.888;151.150;2023-02-18T12:35:51;23.10;99.90
44047;DHT22;29713;-33.888;151.150;2023-02-18T12:38:27;23.00;99.90
44047;DHT22;29713;-33.888;151.150;2023-02-18T13:06:05;23.20;99.90
44047;DHT22;29713;-33.888;151.150;2023-02-18T13:14:17;23.20;99.90
44047;DHT22;29713;-33.888;151.150;2023-02-18T13:16:50;23.30;99.90
44047;DHT22;29713;-33.888;151.150;2023-02-18T13:19:26;23.20;99.90
44047;DHT22;29713;-33.888;151.150;2023-02-18T13:21:57;23.30;99.90
44047;DHT22;29713;-33.888;151.150;2023-02-18T13:24:37;23.30;99.90
44047;DHT22;29713;-33.888;151.150;2023-02-18T13:27:26;23.40;99.90
44047;DHT22;29713;-33.888;151.150;2023-02-18T13:38:19;23.50;99.90
44047;DHT22;29713;-33.888;151.150;2023-02-18T13:40:51;23.50;99.90
44047;DHT22;29713;-33.888;151.150;2023-02-18T13:49:10;23.50;99.90
44047;DHT22;29713;-33.888;151.150;2023-02-18T13:51:45;23.50;99.90
44047;DHT22;29713;-33.888;151.150;2023-02-18T13:59:48;23.50;99.90
44047;DHT22;29713;-33.888;151.150;2023-02-18T14:04:53;23.30;99.90
44047;DHT22;29713;-33.888;151.150;2023-02-18T14:25:54;23.20;99.90
44047;DHT22;29713;-33.888;151.150;2023-02-18T14:31:05;23.10;99.90
44047;DHT22;29713;-33.888;151.150;2023-02-18T14:36:37;23.10;99.90
44047;DHT22;29713;-33.888;151.150;2023-02-18T14:50:39;23.10;99.90
44047;DHT22;29713;-33.888;151.150;2023-02-18T14:53:18;23.10;99.90
44047;DHT22;29713;-33.888;151.150;2023-02-18T14:55:49;23.00;99.90
44047;DHT22;29713;-33.888;151.150;2023-02-18T14:58:37;23.00;99.90
44047;DHT22;29713;-33.888;151.150;2023-02-18T15:01:23;23.00;99.90
44047;DHT22;29713;-33.888;151.150;2023-02-18T15:03:52;23.00;99.90
44047;DHT22;29713;-33.888;151.150;2023-02-18T15:06:34;23.00;99.90
44047;DHT22;29713;-33.888;151.150;2023-02-18T15:09:18;23.00;99.90
44047;DHT22;29713;-33.888;151.150;2023-02-18T15:12:06;23.00;99.90
44047;DHT22;29713;-33.888;151.150;2023-02-18T15:14:40;23.00;99.90
44047;DHT22;29713;-33.888;151.150;2023-02-18T15:17:21;23.00;99.90
44047;DHT22;29713;-33.888;151.150;2023-02-18T15:19:57;23.00;99.90
44047;DHT22;29713;-33.888;151.150;2023-02-18T15:22:29;22.90;99.90
44047;DHT22;29713;-33.888;151.150;2023-02-18T15:24:57;22.90;99.90
44047;DHT22;29713;-33.888;151.150;2023-02-18T15:27:32;22.90;99.90
44047;DHT22;29713;-33.888;151.150;2023-02-18T15:30:33;22.90;99.90
44047;DHT22;29713;-33.888;151.150;2023-02-18T15:33:08;22.90;99.90
44047;DHT22;29713;-33.888;151.150;2023-02-18T15:35:41;22.90;99.90
44047;DHT22;29713;-33.888;151.150;2023-02-18T15:38:18;22.90;99.90
44047;DHT22;29713;-33.888;151.150;2023-02-18T15:40:51;22.90;99.90
44047;DHT22;29713;-33.888;151.150;2023-02-18T15:43:25;22.90;99.90
44047;DHT22;29713;-33.888;151.150;2023-02-18T15:45:58;22.80;99.90
44047;DHT22;29713;-33.888;151.150;2023-02-18T15:48:46;22.80;99.90
44047;DHT22;29713;-33.888;151.150;2023-02-18T15:51:18;22.80;99.90
44047;DHT22;29713;-33.888;151.150;2023-02-18T15:53:49;22.80;99.90
44047;DHT22;29713;-33.888;151.150;2023-02-18T15:59:20;22.80;99.90
44047;DHT22;29713;-33.888;151.150;2023-02-18T16:01:53;22.80;99.90
44047;DHT22;29713;-33.888;151.150;2023-02-18T16:04:22;22.80;99.90
44047;DHT22;29713;-33.888;151.150;2023-02-18T16:06:54;22.90;99.90
44047;DHT22;29713;-33.888;151.150;2023-02-18T16:09:33;22.80;99.90
44047;DHT22;29713;-33.888;151.150;2023-02-18T16:12:04;22.80;99.90
44047;DHT22;29713;-33.888;151.150;2023-02-18T16:14:48;22.70;99.90
44047;DHT22;29713;-33.888;151.150;2023-02-18T16:17:19;22.80;99.90
44047;DHT22;29713;-33.888;151.150;2023-02-18T16:20:01;22.70;99.90
44047;DHT22;29713;-33.888;151.150;2023-02-18T16:22:43;22.70;99.90
44047;DHT22;29713;-33.888;151.150;2023-02-18T16:25:17;22.70;99.90
44047;DHT22;29713;-33.888;151.150;2023-02-18T16:28:03;22.70;99.90
44047;DHT22;29713;-33.888;151.150;2023-02-18T16:30:33;22.70;99.90
44047;DHT22;29713;-33.888;151.150;2023-02-18T16:33:01;22.70;99.90
44047;DHT22;29713;-33.888;151.150;2023-02-18T16:35:29;22.70;99.90
44047;DHT22;29713;-33.888;151.150;2023-02-18T16:37:57;22.70;99.90
44047;DHT22;29713;-33.888;151.150;2023-02-18T16:40:42;22.60;99.90
44047;DHT22;29713;-33.888;151.150;2023-02-18T16:43:19;22.60;99.90
44047;DHT22;29713;-33.888;151.150;2023-02-18T16:45:57;22.60;99.90
44047;DHT22;29713;-33.888;151.150;2023-02-18T16:48:39;22.50;99.90
44047;DHT22;29713;-33.888;151.150;2023-02-18T16:51:17;22.50;99.90
44047;DHT22;29713;-33.888;151.150;2023-02-18T16:53:45;22.50;99.90
44047;DHT22;29713;-33.888;151.150;2023-02-18T16:56:15;22.50;99.90
44047;DHT22;29713;-33.888;151.150;2023-02-18T16:58:42;22.50;99.90
44047;DHT22;29713;-33.888;151.150;2023-02-18T17:01:23;22.50;99.90
44047;DHT22;29713;-33.888;151.150;2023-02-18T17:03:52;22.50;99.90
44047;DHT22;29713;-33.888;151.150;2023-02-18T17:06:20;22.40;99.90
44047;DHT22;29713;-33.888;151.150;2023-02-18T17:08:48;22.40;99.90
44047;DHT22;29713;-33.888;151.150;2023-02-18T17:11:25;22.40;99.90
44047;DHT22;29713;-33.888;151.150;2023-02-18T17:13:55;22.40;99.90
44047;DHT22;29713;-33.888;151.150;2023-02-18T17:16:26;22.40;99.90
44047;DHT22;29713;-33.888;151.150;2023-02-18T17:18:53;22.30;99.90
44047;DHT22;29713;-33.888;151.150;2023-02-18T17:21:23;22.30;99.90
44047;DHT22;29713;-33.888;151.150;2023-02-18T17:23:51;22.30;99.90
44047;DHT22;29713;-33.888;151.150;2023-02-18T17:26:20;22.20;99.90
44047;DHT22;29713;-33.888;151.150;2023-02-18T17:28:50;22.20;99.90
44047;DHT22;29713;-33.888;151.150;2023-02-18T17:31:24;22.20;99.90
44047;DHT22;29713;-33.888;151.150;2023-02-18T17:33:57;22.20;99.90
44047;DHT22;29713;-33.888;151.150;2023-02-18T17:36:25;22.20;99.90
44047;DHT22;29713;-33.888;151.150;2023-02-18T17:38:52;22.30;99.90
44047;DHT22;29713;-33.888;151.150;2023-02-18T17:41:20;22.30;99.90
44047;DHT22;29713;-33.888;151.150;2023-02-18T17:43:47;22.30;99.90
44047;DHT22;29713;-33.888;151.150;2023-02-18T17:46:16;22.30;99.90
44047;DHT22;29713;-33.888;151.150;2023-02-18T17:48:44;22.40;99.90
44047;DHT22;29713;-33.888;151.150;2023-02-18T17:51:32;22.40;99.90
44047;DHT22;29713;-33.888;151.150;2023-02-18T17:54:03;22.30;99.90
44047;DHT22;29713;-33.888;151.150;2023-02-18T17:56:30;22.30;99.90
44047;DHT22;29713;-33.888;151.150;2023-02-18T17:59:00;22.40;99.90
44047;DHT22;29713;-33.888;151.150;2023-02-18T18:01:28;22.30;99.90
44047;DHT22;29713;-33.888;151.150;2023-02-18T18:03:55;22.30;99.90
44047;DHT22;29713;-33.888;151.150;2023-02-18T18:06:22;22.30;99.90
44047;DHT22;29713;-33.888;151.150;2023-02-18T18:08:50;22.40;99.90
44047;DHT22;29713;-33.888;151.150;2023-02-18T18:11:22;22.30;99.90
44047;DHT22;29713;-33.888;151.150;2023-02-18T18:13:51;22.40;99.90
44047;DHT22;29713;-33.888;151.150;2023-02-18T18:16:22;22.40;99.90